Terminal Aerodrome Forecast
Issued by NWS

Home | Current Version | Previous Version | Text Only | Print | Product List | Glossary On
Versions: 1 2 3 4 5 6 7 8 9 10 11 12 13 14 15 16 17 18 19 20 21
000
FTUS45 KREV 271100
TAFTVL
TAF
KTVL 271139Z 2712/2812 18004KT P6SM -SHRA BKN030 OVC040
     FM271800 20010G18KT 4SM -SHSN BKN020 OVC030
     FM280000 19008KT 1SM -SN BKN010 OVC020=

USA.gov is the U.S. government's official web portal to all federal, state and local government web resources and services.